Aviation Digital Data Service (ADDS)

Output produced by METARs form (0831 UTC 23 January 2017)
found at http://aviationweather.gov/adds/metars/
 
KPGV 230559Z 2306/2406 09012KT P6SM -RA OVC004 
     FM230800 09009KT P6SM VCSH OVC005 
     FM231300 22007KT P6SM SCT015 BKN080 
     FM231800 24007KT P6SM VCSH BKN035 
     FM240000 30008KT P6SM OVC015 AMD LTD TO CLD VIS AND WIND